createdAt,value
2022-08-23T00:05:08.129Z,101373.59
2022-08-23T00:10:15.683Z,101387.88
2022-08-23T00:15:20.466Z,101397.72
2022-08-23T00:20:22.048Z,101392.44
2022-08-23T00:25:24.187Z,101396.03
2022-08-23T00:30:25.767Z,101376.47
2022-08-23T00:35:27.802Z,101356.31
2022-08-23T00:40:29.445Z,101376.75
2022-08-23T00:45:56.622Z,101365.47
2022-08-23T00:51:11.165Z,101356.72
2022-08-23T00:56:15.667Z,101364.25
2022-08-23T01:01:18.243Z,101363.19
2022-08-23T01:06:27.202Z,101375.78
2022-08-23T01:11:35.085Z,101364.94
2022-08-23T01:16:55.457Z,101378.38
2022-08-23T01:22:10.257Z,101384.53
2022-08-23T01:27:13.196Z,101366.00
2022-08-23T01:32:14.939Z,101375.19
2022-08-23T01:37:16.558Z,101368.78
2022-08-23T01:42:18.466Z,101368.13
2022-08-23T01:47:20.023Z,101367.47
2022-08-23T01:52:21.598Z,101364.50
2022-08-23T01:57:24.166Z,101348.34
2022-08-23T02:02:26.170Z,101359.56
2022-08-23T02:07:28.934Z,101386.16
2022-08-23T02:12:30.608Z,101370.56
2022-08-23T02:17:32.181Z,101355.03
2022-08-23T02:22:33.778Z,101354.19
2022-08-23T02:27:35.366Z,101384.84
2022-08-23T02:32:36.932Z,101349.06
2022-08-23T02:37:38.624Z,101360.16
2022-08-23T02:42:40.172Z,101386.75
2022-08-23T02:47:42.590Z,101384.84
2022-08-23T02:52:44.145Z,101380.16
2022-08-23T02:57:46.513Z,101386.16
2022-08-23T03:02:48.370Z,101369.56
2022-08-23T03:07:50.842Z,101377.09
2022-08-23T03:12:52.456Z,101378.63
2022-08-23T03:17:54.204Z,101365.41
2022-08-23T03:22:55.968Z,101368.84
2022-08-23T03:27:58.200Z,101386.09
2022-08-23T03:33:01.513Z,101375.47
2022-08-23T03:38:03.243Z,101353.19
2022-08-23T03:43:05.125Z,101391.06
2022-08-23T03:48:06.891Z,101372.56
2022-08-23T03:53:09.151Z,101393.00
2022-08-23T03:58:14.763Z,101398.72
2022-08-23T04:03:16.673Z,101396.16
2022-08-23T04:08:26.991Z,101407.59
2022-08-23T04:13:36.338Z,101390.78
2022-08-23T04:18:37.959Z,101410.38
2022-08-23T04:23:40.297Z,101422.56
2022-08-23T04:28:41.928Z,101402.56
2022-08-23T04:33:43.481Z,101410.66
2022-08-23T04:38:45.078Z,101410.28
2022-08-23T04:43:47.051Z,101400.06
2022-08-23T04:48:49.006Z,101406.88
2022-08-23T04:53:51.006Z,101389.63
2022-08-23T04:58:53.033Z,101393.25
2022-08-23T05:03:55.420Z,101390.47
2022-08-23T05:08:58.182Z,101420.50
2022-08-23T05:14:00.153Z,101401.56
2022-08-23T05:19:01.838Z,101397.56
2022-08-23T05:24:03.942Z,101407.13
2022-08-23T05:29:05.615Z,101413.75
2022-08-23T05:34:07.355Z,101406.13
2022-08-23T05:39:08.953Z,101446.13
2022-08-23T05:44:11.790Z,101416.31
2022-08-23T05:49:16.335Z,101437.09
2022-08-23T05:54:22.830Z,101434.50
2022-08-23T05:59:24.486Z,101434.88
2022-08-23T06:04:26.069Z,101449.06
2022-08-23T06:09:28.033Z,101427.72
2022-08-23T06:14:29.717Z,101434.59
2022-08-23T06:19:31.313Z,101428.88
2022-08-23T06:24:33.366Z,101453.44
2022-08-23T06:29:34.934Z,101451.88
2022-08-23T06:34:38.214Z,101447.59
2022-08-23T06:39:40.274Z,101437.97
2022-08-23T06:44:42.315Z,101442.25
2022-08-23T06:49:55.376Z,101468.16
2022-08-23T06:55:00.041Z,101456.19
2022-08-23T07:00:01.634Z,101439.91
2022-08-23T07:05:04.137Z,101424.59
2022-08-23T07:10:06.710Z,101438.09
2022-08-23T07:15:09.964Z,101430.41
2022-08-23T07:20:11.685Z,101435.94
2022-08-23T07:25:13.571Z,101469.66
2022-08-23T07:30:16.110Z,101460.56
2022-08-23T07:35:17.687Z,101493.91
2022-08-23T07:40:20.673Z,101469.03
2022-08-23T07:45:25.301Z,101496.09
2022-08-23T07:50:30.391Z,101500.19
2022-08-23T07:55:32.260Z,101511.13
2022-08-23T08:00:34.351Z,101488.91
2022-08-23T08:05:36.109Z,101502.19
2022-08-23T08:10:43.909Z,101500.25
2022-08-23T08:15:45.531Z,101516.78
2022-08-23T08:20:48.935Z,101517.16
2022-08-23T08:26:02.891Z,101526.66
2022-08-23T08:31:05.571Z,101525.69
2022-08-23T08:36:08.566Z,101535.47
2022-08-23T08:41:22.380Z,101542.41
2022-08-23T08:46:27.840Z,101545.31
2022-08-23T08:51:48.784Z,101546.16
2022-08-23T08:56:55.924Z,101539.34
2022-08-23T09:01:58.621Z,101539.31
2022-08-23T09:07:16.132Z,101544.56
2022-08-23T09:12:27.207Z,101549.69
2022-08-23T09:17:44.014Z,101549.66
2022-08-23T09:22:52.852Z,101544.38
2022-08-23T09:27:54.368Z,101546.59
2022-08-23T09:33:16.248Z,101547.97
2022-08-23T09:38:20.364Z,101531.91
2022-08-23T09:43:26.214Z,101530.31
2022-08-23T09:48:35.751Z,101530.50
2022-08-23T09:53:40.922Z,101524.22
2022-08-23T09:58:53.506Z,101525.72
2022-08-23T10:04:29.610Z,101510.63
2022-08-23T10:09:33.606Z,101527.13
2022-08-23T10:14:35.191Z,101507.78
2022-08-23T10:20:08.871Z,101534.13
2022-08-23T10:25:16.453Z,101532.59
2022-08-23T10:30:27.459Z,101506.09
2022-08-23T10:36:17.042Z,101508.28
2022-08-23T10:41:24.218Z,101537.44
2022-08-23T10:46:33.984Z,101509.69
2022-08-23T10:51:43.277Z,101518.63
2022-08-23T10:56:48.696Z,101512.94
2022-08-23T11:02:22.120Z,101530.56
2022-08-23T11:07:32.441Z,101532.44
2022-08-23T11:12:49.491Z,101535.59
2022-08-23T11:17:51.539Z,101537.81
2022-08-23T11:23:02.115Z,101536.94
2022-08-23T11:28:22.286Z,101546.72
2022-08-23T11:33:29.912Z,101531.03
2022-08-23T11:38:43.302Z,101550.84
2022-08-23T11:43:56.944Z,101550.09
2022-08-23T11:49:29.771Z,101545.03
2022-08-23T11:55:05.207Z,101551.81
2022-08-23T12:00:17.806Z,101540.63
2022-08-23T12:05:33.869Z,101549.94
2022-08-23T12:10:41.364Z,101558.13
2022-08-23T12:16:04.874Z,101560.09
2022-08-23T12:21:16.215Z,101549.03
2022-08-23T12:26:28.900Z,101537.63
2022-08-23T12:31:48.356Z,101532.38
2022-08-23T12:37:12.685Z,101548.47
2022-08-23T12:42:17.581Z,101545.31
2022-08-23T12:47:21.943Z,101507.50
2022-08-23T12:52:26.401Z,101527.59
2022-08-23T12:57:34.045Z,101535.94
2022-08-23T13:02:37.249Z,101528.19
2022-08-23T13:07:40.441Z,101518.88
2022-08-23T13:12:42.807Z,101522.72
2022-08-23T13:17:44.404Z,101512.94
2022-08-23T13:23:28.228Z,101507.88
2022-08-23T13:28:31.141Z,101520.06
2022-08-23T13:33:33.039Z,101509.22
2022-08-23T13:38:34.658Z,101509.41
2022-08-23T13:43:48.806Z,101502.28
2022-08-23T13:49:11.608Z,101522.41
2022-08-23T13:54:15.551Z,101509.63
2022-08-23T13:59:39.436Z,101512.94
2022-08-23T14:04:42.051Z,101525.31
2022-08-23T14:09:43.679Z,101509.94
2022-08-23T14:14:46.148Z,101528.94
2022-08-23T14:20:32.848Z,101517.13
2022-08-23T14:25:12.559Z,101526.16
2022-08-23T14:30:32.494Z,101529.97
2022-08-23T14:35:34.168Z,101525.66
2022-08-23T14:40:36.334Z,101523.91
2022-08-23T14:45:37.956Z,101518.22
2022-08-23T14:50:41.157Z,101525.91
2022-08-23T14:55:42.878Z,101534.03
2022-08-23T15:00:44.412Z,101532.00
2022-08-23T15:05:46.024Z,101537.28
2022-08-23T15:10:52.924Z,101548.94
2022-08-23T15:16:11.634Z,101544.19
2022-08-23T15:21:14.885Z,101553.69
2022-08-23T15:26:22.609Z,101551.16
2022-08-23T15:31:24.869Z,101555.81
2022-08-23T15:36:28.031Z,101559.13
2022-08-23T15:41:29.533Z,101567.94
2022-08-23T15:46:31.185Z,101567.38
2022-08-23T15:51:32.768Z,101563.03
2022-08-23T15:56:39.724Z,101560.75
2022-08-23T16:01:42.083Z,101561.94
2022-08-23T16:06:45.118Z,101553.31
2022-08-23T16:11:46.686Z,101542.88
2022-08-23T16:16:48.412Z,101547.41
2022-08-23T16:21:52.970Z,101546.09
2022-08-23T16:26:54.686Z,101548.06
2022-08-23T16:31:56.196Z,101546.75
2022-08-23T16:37:00.177Z,101547.94
2022-08-23T16:42:04.301Z,101542.50
2022-08-23T16:47:08.611Z,101533.16
2022-08-23T16:52:10.696Z,101542.00
2022-08-23T16:57:12.506Z,101543.22
2022-08-23T17:02:27.676Z,101552.22
2022-08-23T17:07:29.304Z,101560.75
2022-08-23T17:12:31.702Z,101562.06
2022-08-23T17:17:33.365Z,101569.22
2022-08-23T17:22:34.964Z,101568.84
2022-08-23T17:27:40.073Z,101569.34
2022-08-23T17:32:44.370Z,101578.19
2022-08-23T17:37:46.002Z,101585.97
2022-08-23T17:42:47.567Z,101583.19
2022-08-23T17:47:49.094Z,101589.22
2022-08-23T17:52:50.862Z,101595.28
2022-08-23T17:57:55.094Z,101600.41
2022-08-23T18:02:59.878Z,101607.16
2022-08-23T18:08:01.945Z,101609.41
2022-08-23T18:13:04.199Z,101612.78
2022-08-23T18:18:05.959Z,101613.38
2022-08-23T18:23:07.923Z,101617.13
2022-08-23T18:28:11.099Z,101621.56
2022-08-23T18:33:13.316Z,101630.50
2022-08-23T18:38:14.868Z,101629.13
2022-08-23T18:43:20.638Z,101641.66
2022-08-23T18:48:23.216Z,101646.91
2022-08-23T18:53:24.944Z,101650.84
2022-08-23T18:58:26.549Z,101657.81
2022-08-23T19:03:30.023Z,101653.03
2022-08-23T19:08:31.517Z,101666.19
2022-08-23T19:13:33.099Z,101662.84
2022-08-23T19:18:35.761Z,101675.75
2022-08-23T19:23:37.734Z,101677.72
2022-08-23T19:28:40.657Z,101682.06
2022-08-23T19:33:42.517Z,101677.66
2022-08-23T19:38:44.043Z,101685.16
2022-08-23T19:43:45.592Z,101687.69
2022-08-23T19:48:48.035Z,101688.78
2022-08-23T19:54:04.748Z,101691.63
2022-08-23T19:59:10.974Z,101694.50
2022-08-23T20:04:12.859Z,101697.13
2022-08-23T20:09:14.698Z,101704.03
2022-08-23T20:14:16.277Z,101705.00
2022-08-23T20:19:18.362Z,101715.75
2022-08-23T20:29:44.752Z,101719.28
2022-08-23T20:34:46.242Z,101725.25
2022-08-23T20:39:48.376Z,101713.91
2022-08-23T20:44:50.043Z,101722.69
2022-08-23T20:49:51.586Z,101707.38
2022-08-23T20:54:53.523Z,101720.84
2022-08-23T20:59:55.051Z,101716.19
2022-08-23T21:04:56.573Z,101713.84
2022-08-23T21:09:59.305Z,101719.88
2022-08-23T21:15:00.830Z,101716.91
2022-08-23T21:20:04.559Z,101725.44
2022-08-23T21:25:09.815Z,101724.88
2022-08-23T21:30:11.726Z,101715.94
2022-08-23T21:35:13.813Z,101715.13
2022-08-23T21:40:15.462Z,101716.03
2022-08-23T21:45:16.985Z,101722.00
2022-08-23T21:50:19.041Z,101715.81
2022-08-23T21:55:20.537Z,101716.28
2022-08-23T22:00:22.714Z,101715.41
2022-08-23T22:05:24.612Z,101712.66
2022-08-23T22:10:26.632Z,101715.88
2022-08-23T22:15:28.173Z,101715.22
2022-08-23T22:20:31.515Z,101729.75
2022-08-23T22:25:33.209Z,101721.22
2022-08-23T22:30:35.102Z,101718.22
2022-08-23T22:35:36.967Z,101716.72
2022-08-23T22:40:39.429Z,101705.41
2022-08-23T22:45:54.654Z,101713.31
2022-08-23T22:51:18.312Z,101719.31
2022-08-23T22:56:26.593Z,101710.75
2022-08-23T23:01:34.876Z,101711.00
2022-08-23T23:06:37.411Z,101715.03
2022-08-23T23:11:40.472Z,101708.22
2022-08-23T23:16:44.491Z,101713.53
2022-08-23T23:21:51.564Z,101721.19
2022-08-23T23:26:53.248Z,101717.56
2022-08-23T23:31:55.753Z,101717.16
2022-08-23T23:36:58.219Z,101718.66
2022-08-23T23:41:59.725Z,101715.22
2022-08-23T23:47:02.346Z,101711.19
2022-08-23T23:52:05.560Z,101710.97
2022-08-23T23:57:07.571Z,101709.81
